Terminal Aerodrome Forecast
Issued by NWS

Home | Current Version | Previous Version | Text Only | Print | Product List | Glossary On
Versions: 1 2 3 4 5 6 7 8 9 10 11 12 13 14 15 16 17 18
000
FTUS43 KGRR 190300 AAA
TAFLAN
TAF AMD
KLAN 190322Z 1903/1924 07009KT P6SM SKC
     FM191300 10016G22KT P6SM OVC250
     FM192000 09016G24KT 4SM -RA OVC050
     FM192300 10018G26KT 4SM -RA BR OVC015=

USA.gov is the U.S. government's official web portal to all federal, state and local government web resources and services.